sensor_id;sensor_type;location;lat;lon;timestamp;P1;durP1;ratioP1;P2;durP2;ratioP2
16468;SDS011;8345;50.902;6.956;2022-07-22T00:00:31;8.40;;;7.17;;
16468;SDS011;8345;50.902;6.956;2022-07-22T00:02:58;9.50;;;8.40;;
16468;SDS011;8345;50.902;6.956;2022-07-22T00:05:27;14.30;;;9.17;;
16468;SDS011;8345;50.902;6.956;2022-07-22T00:07:54;13.37;;;9.57;;
16468;SDS011;8345;50.902;6.956;2022-07-22T00:10:21;11.33;;;10.13;;
16468;SDS011;8345;50.902;6.956;2022-07-22T00:12:49;12.47;;;9.93;;
16468;SDS011;8345;50.902;6.956;2022-07-22T00:15:16;9.97;;;8.93;;
16468;SDS011;8345;50.902;6.956;2022-07-22T00:17:43;10.83;;;9.67;;
16468;SDS011;8345;50.902;6.956;2022-07-22T00:20:10;9.67;;;8.63;;
16468;SDS011;8345;50.902;6.956;2022-07-22T00:22:39;9.53;;;7.63;;
16468;SDS011;8345;50.902;6.956;2022-07-22T00:25:06;7.20;;;6.50;;
16468;SDS011;8345;50.902;6.956;2022-07-22T00:27:34;8.77;;;6.17;;
16468;SDS011;8345;50.902;6.956;2022-07-22T00:30:01;8.37;;;5.97;;
16468;SDS011;8345;50.902;6.956;2022-07-22T00:32:28;7.93;;;5.27;;
16468;SDS011;8345;50.902;6.956;2022-07-22T00:34:55;7.10;;;5.57;;
16468;SDS011;8345;50.902;6.956;2022-07-22T00:37:22;10.53;;;6.03;;
16468;SDS011;8345;50.902;6.956;2022-07-22T00:39:51;10.10;;;6.50;;
16468;SDS011;8345;50.902;6.956;2022-07-22T00:42:18;7.30;;;6.10;;
16468;SDS011;8345;50.902;6.956;2022-07-22T00:44:46;8.30;;;6.07;;
16468;SDS011;8345;50.902;6.956;2022-07-22T00:47:13;9.97;;;6.00;;
16468;SDS011;8345;50.902;6.956;2022-07-22T00:49:40;9.40;;;6.03;;
16468;SDS011;8345;50.902;6.956;2022-07-22T00:52:07;8.50;;;5.80;;
16468;SDS011;8345;50.902;6.956;2022-07-22T00:54:35;7.20;;;6.03;;
16468;SDS011;8345;50.902;6.956;2022-07-22T00:57:04;7.97;;;5.70;;
16468;SDS011;8345;50.902;6.956;2022-07-22T00:59:32;8.03;;;6.00;;
16468;SDS011;8345;50.902;6.956;2022-07-22T01:01:59;8.97;;;5.80;;
16468;SDS011;8345;50.902;6.956;2022-07-22T01:04:26;8.80;;;5.13;;
16468;SDS011;8345;50.902;6.956;2022-07-22T01:06:54;8.57;;;5.80;;
16468;SDS011;8345;50.902;6.956;2022-07-22T01:09:21;7.97;;;5.40;;
16468;SDS011;8345;50.902;6.956;2022-07-22T01:11:48;8.73;;;5.43;;
16468;SDS011;8345;50.902;6.956;2022-07-22T01:14:17;7.47;;;5.60;;
16468;SDS011;8345;50.902;6.956;2022-07-22T01:16:44;8.43;;;6.03;;
16468;SDS011;8345;50.902;6.956;2022-07-22T01:19:11;7.97;;;5.77;;
16468;SDS011;8345;50.902;6.956;2022-07-22T01:21:40;9.00;;;5.67;;
16468;SDS011;8345;50.902;6.956;2022-07-22T01:24:07;9.60;;;5.77;;
16468;SDS011;8345;50.902;6.956;2022-07-22T01:26:35;7.87;;;5.63;;
16468;SDS011;8345;50.902;6.956;2022-07-22T01:29:02;7.90;;;5.30;;
16468;SDS011;8345;50.902;6.956;2022-07-22T01:31:30;6.47;;;5.53;;
16468;SDS011;8345;50.902;6.956;2022-07-22T01:33:57;9.80;;;6.40;;
16468;SDS011;8345;50.902;6.956;2022-07-22T01:36:24;9.83;;;5.67;;
16468;SDS011;8345;50.902;6.956;2022-07-22T01:38:53;7.43;;;5.47;;
16468;SDS011;8345;50.902;6.956;2022-07-22T01:41:20;9.57;;;6.67;;
16468;SDS011;8345;50.902;6.956;2022-07-22T01:43:47;7.60;;;6.40;;
16468;SDS011;8345;50.902;6.956;2022-07-22T01:46:15;7.43;;;6.53;;
16468;SDS011;8345;50.902;6.956;2022-07-22T01:48:43;9.50;;;6.53;;
16468;SDS011;8345;50.902;6.956;2022-07-22T01:51:10;11.40;;;6.47;;
16468;SDS011;8345;50.902;6.956;2022-07-22T01:53:37;10.13;;;6.67;;
16468;SDS011;8345;50.902;6.956;2022-07-22T01:56:06;11.30;;;7.43;;
16468;SDS011;8345;50.902;6.956;2022-07-22T01:58:33;9.47;;;7.07;;
16468;SDS011;8345;50.902;6.956;2022-07-22T02:01:01;9.97;;;7.40;;
16468;SDS011;8345;50.902;6.956;2022-07-22T02:03:28;9.70;;;8.00;;
16468;SDS011;8345;50.902;6.956;2022-07-22T02:05:55;12.93;;;8.17;;
16468;SDS011;8345;50.902;6.956;2022-07-22T02:08:23;8.73;;;7.60;;
16468;SDS011;8345;50.902;6.956;2022-07-22T02:10:50;12.20;;;8.23;;
16468;SDS011;8345;50.902;6.956;2022-07-22T02:13:18;9.50;;;8.10;;
16468;SDS011;8345;50.902;6.956;2022-07-22T02:15:45;9.57;;;7.73;;
16468;SDS011;8345;50.902;6.956;2022-07-22T02:18:13;10.43;;;7.63;;
16468;SDS011;8345;50.902;6.956;2022-07-22T02:20:41;8.87;;;7.97;;
16468;SDS011;8345;50.902;6.956;2022-07-22T02:23:09;10.13;;;8.00;;
16468;SDS011;8345;50.902;6.956;2022-07-22T02:25:37;12.33;;;8.07;;
16468;SDS011;8345;50.902;6.956;2022-07-22T02:28:04;9.73;;;7.60;;
16468;SDS011;8345;50.902;6.956;2022-07-22T02:30:33;11.27;;;8.27;;
16468;SDS011;8345;50.902;6.956;2022-07-22T02:33:00;9.40;;;7.83;;
16468;SDS011;8345;50.902;6.956;2022-07-22T02:35:27;10.40;;;8.40;;
16468;SDS011;8345;50.902;6.956;2022-07-22T02:37:55;12.93;;;10.10;;
16468;SDS011;8345;50.902;6.956;2022-07-22T02:40:22;10.80;;;8.73;;
16468;SDS011;8345;50.902;6.956;2022-07-22T02:42:49;11.27;;;9.97;;
16468;SDS011;8345;50.902;6.956;2022-07-22T02:45:17;11.30;;;10.17;;
16468;SDS011;8345;50.902;6.956;2022-07-22T02:47:47;11.10;;;9.40;;
16468;SDS011;8345;50.902;6.956;2022-07-22T02:50:14;12.20;;;9.03;;
16468;SDS011;8345;50.902;6.956;2022-07-22T02:52:41;10.67;;;9.57;;
16468;SDS011;8345;50.902;6.956;2022-07-22T02:55:09;10.23;;;9.23;;
16468;SDS011;8345;50.902;6.956;2022-07-22T02:57:36;9.70;;;8.70;;
16468;SDS011;8345;50.902;6.956;2022-07-22T03:00:04;12.37;;;8.50;;
16468;SDS011;8345;50.902;6.956;2022-07-22T03:02:32;9.00;;;8.10;;
16468;SDS011;8345;50.902;6.956;2022-07-22T03:05:00;10.70;;;9.30;;
16468;SDS011;8345;50.902;6.956;2022-07-22T03:07:28;10.47;;;9.43;;
16468;SDS011;8345;50.902;6.956;2022-07-22T03:09:55;12.30;;;9.50;;
16468;SDS011;8345;50.902;6.956;2022-07-22T03:12:22;10.83;;;8.77;;
16468;SDS011;8345;50.902;6.956;2022-07-22T03:14:49;10.20;;;8.60;;
16468;SDS011;8345;50.902;6.956;2022-07-22T03:17:17;11.73;;;9.80;;
16468;SDS011;8345;50.902;6.956;2022-07-22T03:19:44;12.97;;;10.30;;
16468;SDS011;8345;50.902;6.956;2022-07-22T03:22:12;10.83;;;9.73;;
16468;SDS011;8345;50.902;6.956;2022-07-22T03:24:40;12.23;;;9.50;;
16468;SDS011;8345;50.902;6.956;2022-07-22T03:27:07;12.40;;;10.37;;
16468;SDS011;8345;50.902;6.956;2022-07-22T03:29:34;11.13;;;9.87;;
16468;SDS011;8345;50.902;6.956;2022-07-22T03:32:01;11.73;;;9.37;;
16468;SDS011;8345;50.902;6.956;2022-07-22T03:34:29;11.13;;;9.67;;
16468;SDS011;8345;50.902;6.956;2022-07-22T03:36:56;10.50;;;9.50;;
16468;SDS011;8345;50.902;6.956;2022-07-22T03:39:24;10.80;;;8.30;;
16468;SDS011;8345;50.902;6.956;2022-07-22T03:41:52;11.97;;;9.00;;
16468;SDS011;8345;50.902;6.956;2022-07-22T03:44:19;9.67;;;8.30;;
16468;SDS011;8345;50.902;6.956;2022-07-22T03:46:46;11.20;;;8.67;;
16468;SDS011;8345;50.902;6.956;2022-07-22T03:49:13;11.97;;;8.20;;
16468;SDS011;8345;50.902;6.956;2022-07-22T03:51:40;9.87;;;7.90;;
16468;SDS011;8345;50.902;6.956;2022-07-22T03:54:08;9.53;;;8.00;;
16468;SDS011;8345;50.902;6.956;2022-07-22T03:56:36;10.67;;;8.20;;
16468;SDS011;8345;50.902;6.956;2022-07-22T03:59:03;8.23;;;7.43;;
16468;SDS011;8345;50.902;6.956;2022-07-22T04:01:31;9.53;;;8.10;;
16468;SDS011;8345;50.902;6.956;2022-07-22T04:03:58;10.63;;;8.03;;
16468;SDS011;8345;50.902;6.956;2022-07-22T04:06:25;8.93;;;7.70;;
16468;SDS011;8345;50.902;6.956;2022-07-22T04:08:52;8.97;;;7.60;;
16468;SDS011;8345;50.902;6.956;2022-07-22T04:11:20;8.27;;;7.37;;
16468;SDS011;8345;50.902;6.956;2022-07-22T04:13:48;8.47;;;7.60;;
16468;SDS011;8345;50.902;6.956;2022-07-22T04:16:16;7.90;;;7.10;;
16468;SDS011;8345;50.902;6.956;2022-07-22T04:18:43;8.43;;;7.10;;
16468;SDS011;8345;50.902;6.956;2022-07-22T04:21:10;10.33;;;7.80;;
16468;SDS011;8345;50.902;6.956;2022-07-22T04:23:37;9.60;;;7.70;;
16468;SDS011;8345;50.902;6.956;2022-07-22T04:26:05;9.30;;;8.50;;
16468;SDS011;8345;50.902;6.956;2022-07-22T04:28:33;11.83;;;9.20;;
16468;SDS011;8345;50.902;6.956;2022-07-22T04:31:01;11.13;;;8.53;;
16468;SDS011;8345;50.902;6.956;2022-07-22T04:33:28;9.00;;;8.00;;
16468;SDS011;8345;50.902;6.956;2022-07-22T04:35:56;9.87;;;8.70;;
16468;SDS011;8345;50.902;6.956;2022-07-22T04:38:23;10.43;;;8.53;;
16468;SDS011;8345;50.902;6.956;2022-07-22T04:40:50;10.53;;;8.20;;
16468;SDS011;8345;50.902;6.956;2022-07-22T04:43:18;10.50;;;7.90;;
16468;SDS011;8345;50.902;6.956;2022-07-22T04:45:45;9.77;;;7.90;;
16468;SDS011;8345;50.902;6.956;2022-07-22T04:48:13;10.77;;;8.27;;
16468;SDS011;8345;50.902;6.956;2022-07-22T04:50:41;8.73;;;7.70;;
16468;SDS011;8345;50.902;6.956;2022-07-22T04:53:08;9.47;;;8.07;;
16468;SDS011;8345;50.902;6.956;2022-07-22T04:55:35;9.07;;;7.67;;
16468;SDS011;8345;50.902;6.956;2022-07-22T04:58:02;10.13;;;8.57;;
16468;SDS011;8345;50.902;6.956;2022-07-22T05:00:29;9.83;;;8.83;;
16468;SDS011;8345;50.902;6.956;2022-07-22T05:02:57;10.13;;;7.63;;
16468;SDS011;8345;50.902;6.956;2022-07-22T05:05:25;8.63;;;7.67;;
16468;SDS011;8345;50.902;6.956;2022-07-22T05:07:53;8.93;;;7.17;;
16468;SDS011;8345;50.902;6.956;2022-07-22T05:10:20;9.53;;;7.30;;
16468;SDS011;8345;50.902;6.956;2022-07-22T05:12:47;8.03;;;7.33;;
16468;SDS011;8345;50.902;6.956;2022-07-22T05:15:15;7.93;;;6.93;;
16468;SDS011;8345;50.902;6.956;2022-07-22T05:17:42;8.33;;;7.17;;
16468;SDS011;8345;50.902;6.956;2022-07-22T05:20:09;10.90;;;6.67;;
16468;SDS011;8345;50.902;6.956;2022-07-22T05:22:38;11.23;;;7.20;;
16468;SDS011;8345;50.902;6.956;2022-07-22T05:25:06;7.37;;;6.67;;
16468;SDS011;8345;50.902;6.956;2022-07-22T05:27:33;8.77;;;6.90;;
16468;SDS011;8345;50.902;6.956;2022-07-22T05:30:00;7.63;;;6.73;;
16468;SDS011;8345;50.902;6.956;2022-07-22T05:32:27;6.47;;;5.83;;
16468;SDS011;8345;50.902;6.956;2022-07-22T05:34:54;9.23;;;7.30;;
16468;SDS011;8345;50.902;6.956;2022-07-22T05:37:22;8.67;;;6.83;;
16468;SDS011;8345;50.902;6.956;2022-07-22T05:39:50;10.83;;;7.30;;
16468;SDS011;8345;50.902;6.956;2022-07-22T05:42:17;9.80;;;7.93;;
16468;SDS011;8345;50.902;6.956;2022-07-22T05:44:44;13.30;;;11.17;;
16468;SDS011;8345;50.902;6.956;2022-07-22T05:47:12;9.03;;;7.80;;
16468;SDS011;8345;50.902;6.956;2022-07-22T05:49:39;8.80;;;7.43;;
16468;SDS011;8345;50.902;6.956;2022-07-22T05:52:06;9.60;;;8.40;;
16468;SDS011;8345;50.902;6.956;2022-07-22T05:54:33;10.00;;;8.67;;
16468;SDS011;8345;50.902;6.956;2022-07-22T05:57:02;10.83;;;9.80;;
16468;SDS011;8345;50.902;6.956;2022-07-22T05:59:29;12.67;;;11.03;;
16468;SDS011;8345;50.902;6.956;2022-07-22T06:01:56;14.13;;;12.73;;
16468;SDS011;8345;50.902;6.956;2022-07-22T06:04:24;12.37;;;11.07;;
16468;SDS011;8345;50.902;6.956;2022-07-22T06:06:51;13.80;;;11.27;;
16468;SDS011;8345;50.902;6.956;2022-07-22T06:09:19;10.87;;;9.60;;
16468;SDS011;8345;50.902;6.956;2022-07-22T06:11:46;13.07;;;11.30;;
16468;SDS011;8345;50.902;6.956;2022-07-22T06:14:15;13.30;;;11.20;;
16468;SDS011;8345;50.902;6.956;2022-07-22T06:16:42;12.07;;;10.87;;
16468;SDS011;8345;50.902;6.956;2022-07-22T06:19:09;12.07;;;10.73;;
16468;SDS011;8345;50.902;6.956;2022-07-22T06:21:36;11.60;;;10.00;;
16468;SDS011;8345;50.902;6.956;2022-07-22T06:24:04;13.23;;;9.80;;
16468;SDS011;8345;50.902;6.956;2022-07-22T06:26:31;11.50;;;9.57;;
16468;SDS011;8345;50.902;6.956;2022-07-22T06:28:59;11.43;;;10.33;;
16468;SDS011;8345;50.902;6.956;2022-07-22T06:31:27;10.93;;;9.87;;
16468;SDS011;8345;50.902;6.956;2022-07-22T06:33:54;11.77;;;9.90;;
16468;SDS011;8345;50.902;6.956;2022-07-22T06:36:22;10.17;;;9.20;;
16468;SDS011;8345;50.902;6.956;2022-07-22T06:38:49;12.00;;;9.43;;
16468;SDS011;8345;50.902;6.956;2022-07-22T06:41:16;10.07;;;8.90;;
16468;SDS011;8345;50.902;6.956;2022-07-22T06:43:44;11.60;;;9.37;;
16468;SDS011;8345;50.902;6.956;2022-07-22T06:46:12;11.00;;;9.80;;
16468;SDS011;8345;50.902;6.956;2022-07-22T06:48:40;10.97;;;9.87;;
16468;SDS011;8345;50.902;6.956;2022-07-22T06:51:08;9.40;;;8.50;;
16468;SDS011;8345;50.902;6.956;2022-07-22T06:53:35;10.60;;;9.47;;
16468;SDS011;8345;50.902;6.956;2022-07-22T06:56:02;11.27;;;8.93;;
16468;SDS011;8345;50.902;6.956;2022-07-22T06:58:29;10.43;;;8.40;;
16468;SDS011;8345;50.902;6.956;2022-07-22T07:00:57;9.77;;;8.77;;
16468;SDS011;8345;50.902;6.956;2022-07-22T07:03:24;11.47;;;9.30;;
16468;SDS011;8345;50.902;6.956;2022-07-22T07:05:52;9.70;;;8.70;;
16468;SDS011;8345;50.902;6.956;2022-07-22T07:08:20;10.47;;;9.37;;
16468;SDS011;8345;50.902;6.956;2022-07-22T07:10:47;12.63;;;9.67;;
16468;SDS011;8345;50.902;6.956;2022-07-22T07:13:14;12.40;;;10.27;;
16468;SDS011;8345;50.902;6.956;2022-07-22T07:15:41;12.70;;;11.07;;
16468;SDS011;8345;50.902;6.956;2022-07-22T07:18:08;15.50;;;12.27;;
16468;SDS011;8345;50.902;6.956;2022-07-22T07:20:36;17.03;;;12.50;;
16468;SDS011;8345;50.902;6.956;2022-07-22T07:23:04;15.37;;;12.70;;
16468;SDS011;8345;50.902;6.956;2022-07-22T07:25:31;11.93;;;10.83;;
16468;SDS011;8345;50.902;6.956;2022-07-22T07:27:59;11.03;;;10.03;;
16468;SDS011;8345;50.902;6.956;2022-07-22T07:30:26;13.40;;;9.87;;
16468;SDS011;8345;50.902;6.956;2022-07-22T07:32:53;10.23;;;9.23;;
16468;SDS011;8345;50.902;6.956;2022-07-22T07:35:21;9.87;;;8.87;;
16468;SDS011;8345;50.902;6.956;2022-07-22T07:37:48;10.17;;;9.17;;
16468;SDS011;8345;50.902;6.956;2022-07-22T07:40:16;8.47;;;7.63;;
16468;SDS011;8345;50.902;6.956;2022-07-22T07:42:44;10.30;;;8.63;;
16468;SDS011;8345;50.902;6.956;2022-07-22T07:45:11;9.67;;;8.07;;
16468;SDS011;8345;50.902;6.956;2022-07-22T07:47:38;8.90;;;8.00;;
16468;SDS011;8345;50.902;6.956;2022-07-22T07:50:06;9.53;;;8.60;;
16468;SDS011;8345;50.902;6.956;2022-07-22T07:52:36;9.93;;;8.23;;
16468;SDS011;8345;50.902;6.956;2022-07-22T07:55:04;10.00;;;7.90;;
16468;SDS011;8345;50.902;6.956;2022-07-22T07:57:32;9.40;;;8.17;;
16468;SDS011;8345;50.902;6.956;2022-07-22T08:00:00;7.77;;;6.97;;
16468;SDS011;8345;50.902;6.956;2022-07-22T08:02:27;9.60;;;8.00;;
16468;SDS011;8345;50.902;6.956;2022-07-22T08:04:54;8.80;;;7.90;;
16468;SDS011;8345;50.902;6.956;2022-07-22T08:07:21;8.20;;;7.20;;
16468;SDS011;8345;50.902;6.956;2022-07-22T08:09:48;9.60;;;7.60;;
16468;SDS011;8345;50.902;6.956;2022-07-22T08:12:16;9.97;;;8.27;;
16468;SDS011;8345;50.902;6.956;2022-07-22T08:14:44;10.17;;;7.93;;
16468;SDS011;8345;50.902;6.956;2022-07-22T08:17:11;11.27;;;8.33;;
16468;SDS011;8345;50.902;6.956;2022-07-22T08:19:39;8.93;;;7.27;;
16468;SDS011;8345;50.902;6.956;2022-07-22T08:22:06;10.80;;;9.13;;
16468;SDS011;8345;50.902;6.956;2022-07-22T08:24:33;10.00;;;8.87;;
16468;SDS011;8345;50.902;6.956;2022-07-22T08:27:01;10.67;;;9.03;;
16468;SDS011;8345;50.902;6.956;2022-07-22T08:29:28;9.47;;;8.23;;
16468;SDS011;8345;50.902;6.956;2022-07-22T08:31:57;11.20;;;8.53;;
16468;SDS011;8345;50.902;6.956;2022-07-22T08:34:24;9.30;;;8.40;;
16468;SDS011;8345;50.902;6.956;2022-07-22T08:36:51;10.03;;;8.90;;
16468;SDS011;8345;50.902;6.956;2022-07-22T08:39:18;9.53;;;8.63;;
16468;SDS011;8345;50.902;6.956;2022-07-22T08:41:46;9.83;;;8.80;;
16468;SDS011;8345;50.902;6.956;2022-07-22T08:44:13;9.80;;;8.70;;
16468;SDS011;8345;50.902;6.956;2022-07-22T08:46:40;11.97;;;7.63;;
16468;SDS011;8345;50.902;6.956;2022-07-22T08:49:12;8.20;;;7.50;;
16468;SDS011;8345;50.902;6.956;2022-07-22T08:51:39;11.90;;;8.50;;
16468;SDS011;8345;50.902;6.956;2022-07-22T08:54:07;10.43;;;8.10;;
16468;SDS011;8345;50.902;6.956;2022-07-22T08:56:34;11.37;;;8.63;;
16468;SDS011;8345;50.902;6.956;2022-07-22T08:59:03;9.93;;;8.03;;
16468;SDS011;8345;50.902;6.956;2022-07-22T09:01:31;10.47;;;8.57;;
16468;SDS011;8345;50.902;6.956;2022-07-22T09:03:59;10.03;;;9.10;;
16468;SDS011;8345;50.902;6.956;2022-07-22T09:06:27;10.40;;;9.40;;
16468;SDS011;8345;50.902;6.956;2022-07-22T09:08:59;10.67;;;8.97;;
16468;SDS011;8345;50.902;6.956;2022-07-22T09:11:27;10.73;;;8.53;;
16468;SDS011;8345;50.902;6.956;2022-07-22T09:13:55;9.40;;;8.50;;
16468;SDS011;8345;50.902;6.956;2022-07-22T09:16:38;10.40;;;8.83;;
16468;SDS011;8345;50.902;6.956;2022-07-22T09:19:06;10.73;;;9.63;;
16468;SDS011;8345;50.902;6.956;2022-07-22T09:21:35;10.20;;;9.20;;
16468;SDS011;8345;50.902;6.956;2022-07-22T09:24:03;9.90;;;8.90;;
16468;SDS011;8345;50.902;6.956;2022-07-22T09:26:31;9.73;;;8.83;;
16468;SDS011;8345;50.902;6.956;2022-07-22T09:28:58;11.50;;;10.30;;
16468;SDS011;8345;50.902;6.956;2022-07-22T09:31:26;11.60;;;10.37;;
16468;SDS011;8345;50.902;6.956;2022-07-22T09:33:55;11.83;;;9.97;;
16468;SDS011;8345;50.902;6.956;2022-07-22T09:36:23;12.03;;;10.73;;
16468;SDS011;8345;50.902;6.956;2022-07-22T09:38:52;11.03;;;9.90;;
16468;SDS011;8345;50.902;6.956;2022-07-22T09:41:19;10.73;;;9.60;;
16468;SDS011;8345;50.902;6.956;2022-07-22T09:43:47;9.57;;;8.60;;
16468;SDS011;8345;50.902;6.956;2022-07-22T09:46:16;11.20;;;10.10;;
16468;SDS011;8345;50.902;6.956;2022-07-22T09:48:43;11.07;;;9.67;;
16468;SDS011;8345;50.902;6.956;2022-07-22T09:51:10;11.67;;;10.47;;
16468;SDS011;8345;50.902;6.956;2022-07-22T09:53:37;10.60;;;9.70;;
16468;SDS011;8345;50.902;6.956;2022-07-22T09:56:07;10.67;;;9.33;;
16468;SDS011;8345;50.902;6.956;2022-07-22T09:58:35;12.13;;;10.57;;
16468;SDS011;8345;50.902;6.956;2022-07-22T10:01:03;11.27;;;10.10;;
16468;SDS011;8345;50.902;6.956;2022-07-22T10:03:31;11.40;;;10.30;;
16468;SDS011;8345;50.902;6.956;2022-07-22T10:05:58;10.37;;;9.40;;
16468;SDS011;8345;50.902;6.956;2022-07-22T10:08:26;12.53;;;11.23;;
16468;SDS011;8345;50.902;6.956;2022-07-22T10:10:53;11.87;;;10.73;;
16468;SDS011;8345;50.902;6.956;2022-07-22T10:13:23;11.60;;;10.43;;
16468;SDS011;8345;50.902;6.956;2022-07-22T10:15:50;12.17;;;10.57;;
16468;SDS011;8345;50.902;6.956;2022-07-22T10:18:18;12.70;;;11.50;;
16468;SDS011;8345;50.902;6.956;2022-07-22T10:20:45;11.73;;;10.63;;
16468;SDS011;8345;50.902;6.956;2022-07-22T10:23:12;12.40;;;11.20;;
16468;SDS011;8345;50.902;6.956;2022-07-22T10:25:51;12.67;;;11.47;;
16468;SDS011;8345;50.902;6.956;2022-07-22T10:28:24;12.60;;;11.40;;
16468;SDS011;8345;50.902;6.956;2022-07-22T10:30:51;13.00;;;11.70;;
16468;SDS011;8345;50.902;6.956;2022-07-22T10:33:19;12.57;;;11.27;;
16468;SDS011;8345;50.902;6.956;2022-07-22T10:35:54;13.33;;;12.10;;
16468;SDS011;8345;50.902;6.956;2022-07-22T10:38:21;13.20;;;11.80;;
16468;SDS011;8345;50.902;6.956;2022-07-22T10:40:49;12.77;;;11.67;;
16468;SDS011;8345;50.902;6.956;2022-07-22T10:43:17;12.87;;;11.67;;
16468;SDS011;8345;50.902;6.956;2022-07-22T10:45:48;14.00;;;12.70;;
16468;SDS011;8345;50.902;6.956;2022-07-22T10:48:16;12.00;;;10.93;;
16468;SDS011;8345;50.902;6.956;2022-07-22T10:50:45;13.63;;;12.33;;
16468;SDS011;8345;50.902;6.956;2022-07-22T10:53:15;13.50;;;12.23;;
16468;SDS011;8345;50.902;6.956;2022-07-22T10:56:03;11.90;;;10.90;;
16468;SDS011;8345;50.902;6.956;2022-07-22T10:58:47;14.13;;;12.63;;
16468;SDS011;8345;50.902;6.956;2022-07-22T11:01:18;12.97;;;11.77;;
16468;SDS011;8345;50.902;6.956;2022-07-22T11:03:47;12.37;;;11.07;;
16468;SDS011;8345;50.902;6.956;2022-07-22T11:06:24;12.03;;;10.93;;
16468;SDS011;8345;50.902;6.956;2022-07-22T11:08:52;12.03;;;10.83;;
16468;SDS011;8345;50.902;6.956;2022-07-22T11:11:30;11.27;;;10.17;;
16468;SDS011;8345;50.902;6.956;2022-07-22T11:13:58;11.73;;;10.67;;
16468;SDS011;8345;50.902;6.956;2022-07-22T11:16:27;11.40;;;10.40;;
16468;SDS011;8345;50.902;6.956;2022-07-22T11:18:55;11.57;;;9.93;;
16468;SDS011;8345;50.902;6.956;2022-07-22T11:21:23;11.83;;;10.63;;
16468;SDS011;8345;50.902;6.956;2022-07-22T11:23:51;11.63;;;10.40;;
16468;SDS011;8345;50.902;6.956;2022-07-22T11:26:20;12.77;;;10.57;;
16468;SDS011;8345;50.902;6.956;2022-07-22T11:28:49;11.67;;;10.57;;
16468;SDS011;8345;50.902;6.956;2022-07-22T11:31:16;11.77;;;10.57;;
16468;SDS011;8345;50.902;6.956;2022-07-22T11:33:45;11.80;;;10.70;;
16468;SDS011;8345;50.902;6.956;2022-07-22T11:36:13;12.40;;;11.20;;
16468;SDS011;8345;50.902;6.956;2022-07-22T11:38:41;12.17;;;10.93;;
16468;SDS011;8345;50.902;6.956;2022-07-22T11:41:08;11.10;;;10.10;;
16468;SDS011;8345;50.902;6.956;2022-07-22T11:43:39;11.07;;;10.07;;
16468;SDS011;8345;50.902;6.956;2022-07-22T11:46:06;12.10;;;11.00;;
16468;SDS011;8345;50.902;6.956;2022-07-22T11:48:33;12.77;;;11.47;;
16468;SDS011;8345;50.902;6.956;2022-07-22T11:51:03;11.23;;;10.20;;
16468;SDS011;8345;50.902;6.956;2022-07-22T11:53:31;12.53;;;11.27;;
16468;SDS011;8345;50.902;6.956;2022-07-22T11:55:59;11.73;;;10.73;;
16468;SDS011;8345;50.902;6.956;2022-07-22T11:58:33;12.50;;;11.30;;
16468;SDS011;8345;50.902;6.956;2022-07-22T12:01:02;11.07;;;10.00;;
16468;SDS011;8345;50.902;6.956;2022-07-22T12:03:31;11.80;;;10.70;;
16468;SDS011;8345;50.902;6.956;2022-07-22T12:05:58;11.53;;;10.53;;
16468;SDS011;8345;50.902;6.956;2022-07-22T12:08:27;12.07;;;10.90;;
16468;SDS011;8345;50.902;6.956;2022-07-22T12:10:55;11.77;;;10.77;;
16468;SDS011;8345;50.902;6.956;2022-07-22T12:13:27;11.77;;;10.67;;
16468;SDS011;8345;50.902;6.956;2022-07-22T12:15:55;13.37;;;12.07;;
16468;SDS011;8345;50.902;6.956;2022-07-22T12:18:23;18.27;;;12.37;;
16468;SDS011;8345;50.902;6.956;2022-07-22T12:20:51;11.90;;;10.90;;
16468;SDS011;8345;50.902;6.956;2022-07-22T12:23:19;12.80;;;11.70;;
16468;SDS011;8345;50.902;6.956;2022-07-22T12:25:54;13.27;;;11.90;;
16468;SDS011;8345;50.902;6.956;2022-07-22T12:28:22;12.63;;;11.50;;
16468;SDS011;8345;50.902;6.956;2022-07-22T12:30:49;11.93;;;10.90;;
16468;SDS011;8345;50.902;6.956;2022-07-22T12:33:17;12.97;;;11.87;;
16468;SDS011;8345;50.902;6.956;2022-07-22T12:35:57;13.50;;;10.97;;
16468;SDS011;8345;50.902;6.956;2022-07-22T12:38:24;12.87;;;11.67;;
16468;SDS011;8345;50.902;6.956;2022-07-22T12:40:51;13.30;;;12.10;;
16468;SDS011;8345;50.902;6.956;2022-07-22T12:43:23;13.70;;;12.30;;
16468;SDS011;8345;50.902;6.956;2022-07-22T12:45:50;13.60;;;12.33;;
16468;SDS011;8345;50.902;6.956;2022-07-22T12:48:18;13.67;;;12.47;;
16468;SDS011;8345;50.902;6.956;2022-07-22T12:50:53;13.87;;;12.57;;
16468;SDS011;8345;50.902;6.956;2022-07-22T12:53:22;14.23;;;12.73;;
16468;SDS011;8345;50.902;6.956;2022-07-22T12:55:50;13.73;;;12.43;;
16468;SDS011;8345;50.902;6.956;2022-07-22T12:58:21;13.40;;;12.20;;
16468;SDS011;8345;50.902;6.956;2022-07-22T13:00:51;13.20;;;11.90;;
16468;SDS011;8345;50.902;6.956;2022-07-22T13:03:18;13.63;;;12.33;;
16468;SDS011;8345;50.902;6.956;2022-07-22T13:05:47;14.07;;;12.83;;
16468;SDS011;8345;50.902;6.956;2022-07-22T13:08:14;13.37;;;12.17;;
16468;SDS011;8345;50.902;6.956;2022-07-22T13:10:42;14.63;;;13.20;;
16468;SDS011;8345;50.902;6.956;2022-07-22T13:13:09;14.40;;;13.10;;
16468;SDS011;8345;50.902;6.956;2022-07-22T13:15:38;13.47;;;12.30;;
16468;SDS011;8345;50.902;6.956;2022-07-22T13:18:05;13.73;;;12.43;;
16468;SDS011;8345;50.902;6.956;2022-07-22T13:20:32;13.50;;;12.30;;
16468;SDS011;8345;50.902;6.956;2022-07-22T13:23:00;14.30;;;12.63;;
16468;SDS011;8345;50.902;6.956;2022-07-22T13:25:27;14.27;;;12.97;;
16468;SDS011;8345;50.902;6.956;2022-07-22T13:27:56;13.07;;;11.70;;
16468;SDS011;8345;50.902;6.956;2022-07-22T13:30:23;14.00;;;12.60;;
16468;SDS011;8345;50.902;6.956;2022-07-22T13:32:52;14.17;;;12.70;;
16468;SDS011;8345;50.902;6.956;2022-07-22T13:35:19;13.57;;;12.23;;
16468;SDS011;8345;50.902;6.956;2022-07-22T13:37:47;14.43;;;13.03;;
16468;SDS011;8345;50.902;6.956;2022-07-22T13:40:14;13.07;;;11.87;;
16468;SDS011;8345;50.902;6.956;2022-07-22T13:42:42;15.20;;;13.60;;
16468;SDS011;8345;50.902;6.956;2022-07-22T13:45:09;12.70;;;11.40;;
16468;SDS011;8345;50.902;6.956;2022-07-22T13:47:38;13.53;;;12.33;;
16468;SDS011;8345;50.902;6.956;2022-07-22T13:50:08;13.53;;;12.40;;
16468;SDS011;8345;50.902;6.956;2022-07-22T13:52:35;13.23;;;11.87;;
16468;SDS011;8345;50.902;6.956;2022-07-22T13:55:03;13.20;;;11.93;;
16468;SDS011;8345;50.902;6.956;2022-07-22T13:57:30;15.03;;;13.57;;
16468;SDS011;8345;50.902;6.956;2022-07-22T13:59:57;13.97;;;12.57;;
16468;SDS011;8345;50.902;6.956;2022-07-22T14:02:25;14.67;;;13.33;;
16468;SDS011;8345;50.902;6.956;2022-07-22T14:04:52;15.63;;;14.13;;
16468;SDS011;8345;50.902;6.956;2022-07-22T14:07:20;14.87;;;13.40;;
16468;SDS011;8345;50.902;6.956;2022-07-22T14:09:47;15.07;;;13.67;;
16468;SDS011;8345;50.902;6.956;2022-07-22T14:12:15;14.40;;;13.10;;
16468;SDS011;8345;50.902;6.956;2022-07-22T14:14:43;15.27;;;13.77;;
16468;SDS011;8345;50.902;6.956;2022-07-22T14:17:10;13.37;;;12.00;;
16468;SDS011;8345;50.902;6.956;2022-07-22T14:19:37;14.17;;;12.17;;
16468;SDS011;8345;50.902;6.956;2022-07-22T14:22:04;16.27;;;14.57;;
16468;SDS011;8345;50.902;6.956;2022-07-22T14:24:33;15.63;;;14.13;;
16468;SDS011;8345;50.902;6.956;2022-07-22T14:27:00;15.90;;;14.37;;
16468;SDS011;8345;50.902;6.956;2022-07-22T14:29:27;14.70;;;13.20;;
16468;SDS011;8345;50.902;6.956;2022-07-22T14:31:55;14.77;;;13.33;;
16468;SDS011;8345;50.902;6.956;2022-07-22T14:34:22;14.73;;;13.20;;
16468;SDS011;8345;50.902;6.956;2022-07-22T14:36:49;15.23;;;13.83;;
16468;SDS011;8345;50.902;6.956;2022-07-22T14:39:16;14.10;;;12.80;;
16468;SDS011;8345;50.902;6.956;2022-07-22T14:41:45;13.93;;;12.43;;
16468;SDS011;8345;50.902;6.956;2022-07-22T14:44:12;15.23;;;13.27;;
16468;SDS011;8345;50.902;6.956;2022-07-22T14:46:39;13.83;;;12.57;;
16468;SDS011;8345;50.902;6.956;2022-07-22T14:49:07;14.77;;;13.10;;